sensor_id;sensor_type;location;lat;lon;timestamp;P1;durP1;ratioP1;P2;durP2;ratioP2
8737;SDS011;4405;49.272;8.590;2023-06-10T00:01:03;7.13;;;6.43;;
8737;SDS011;4405;49.272;8.590;2023-06-10T00:03:29;6.10;;;5.60;;
8737;SDS011;4405;49.272;8.590;2023-06-10T00:05:56;6.27;;;5.60;;
8737;SDS011;4405;49.272;8.590;2023-06-10T00:08:22;6.23;;;5.83;;
8737;SDS011;4405;49.272;8.590;2023-06-10T00:10:49;7.60;;;6.03;;
8737;SDS011;4405;49.272;8.590;2023-06-10T00:13:17;6.90;;;6.20;;
8737;SDS011;4405;49.272;8.590;2023-06-10T00:15:43;5.93;;;5.63;;
8737;SDS011;4405;49.272;8.590;2023-06-10T00:18:10;6.33;;;5.93;;
8737;SDS011;4405;49.272;8.590;2023-06-10T00:20:36;6.50;;;6.00;;
8737;SDS011;4405;49.272;8.590;2023-06-10T00:23:04;6.03;;;5.63;;
8737;SDS011;4405;49.272;8.590;2023-06-10T00:25:33;5.77;;;5.27;;
8737;SDS011;4405;49.272;8.590;2023-06-10T00:27:59;5.83;;;5.53;;
8737;SDS011;4405;49.272;8.590;2023-06-10T00:30:27;6.40;;;5.80;;
8737;SDS011;4405;49.272;8.590;2023-06-10T00:32:53;6.03;;;5.63;;
8737;SDS011;4405;49.272;8.590;2023-06-10T00:35:20;6.07;;;5.57;;
8737;SDS011;4405;49.272;8.590;2023-06-10T00:37:46;5.80;;;5.40;;
8737;SDS011;4405;49.272;8.590;2023-06-10T00:40:12;5.60;;;5.30;;
8737;SDS011;4405;49.272;8.590;2023-06-10T00:42:39;5.70;;;5.30;;
8737;SDS011;4405;49.272;8.590;2023-06-10T00:45:05;6.17;;;5.50;;
8737;SDS011;4405;49.272;8.590;2023-06-10T00:47:34;6.10;;;5.63;;
8737;SDS011;4405;49.272;8.590;2023-06-10T00:50:00;6.20;;;5.70;;
8737;SDS011;4405;49.272;8.590;2023-06-10T00:52:27;6.03;;;5.53;;
8737;SDS011;4405;49.272;8.590;2023-06-10T00:54:54;6.20;;;5.80;;
8737;SDS011;4405;49.272;8.590;2023-06-10T00:57:20;5.80;;;5.40;;
8737;SDS011;4405;49.272;8.590;2023-06-10T00:59:48;6.13;;;5.73;;
8737;SDS011;4405;49.272;8.590;2023-06-10T01:02:14;6.60;;;5.90;;
8737;SDS011;4405;49.272;8.590;2023-06-10T01:04:42;5.93;;;5.53;;
8737;SDS011;4405;49.272;8.590;2023-06-10T01:07:09;5.83;;;5.43;;
8737;SDS011;4405;49.272;8.590;2023-06-10T01:09:41;6.27;;;5.67;;
8737;SDS011;4405;49.272;8.590;2023-06-10T01:12:10;6.27;;;5.87;;
8737;SDS011;4405;49.272;8.590;2023-06-10T01:14:38;6.13;;;5.63;;
8737;SDS011;4405;49.272;8.590;2023-06-10T01:17:10;5.50;;;5.10;;
8737;SDS011;4405;49.272;8.590;2023-06-10T01:19:37;6.13;;;5.53;;
8737;SDS011;4405;49.272;8.590;2023-06-10T01:22:04;6.57;;;6.03;;
8737;SDS011;4405;49.272;8.590;2023-06-10T01:24:32;5.73;;;5.20;;
8737;SDS011;4405;49.272;8.590;2023-06-10T01:26:59;5.83;;;5.33;;
8737;SDS011;4405;49.272;8.590;2023-06-10T01:29:28;5.57;;;5.20;;
8737;SDS011;4405;49.272;8.590;2023-06-10T01:31:58;6.03;;;5.57;;
8737;SDS011;4405;49.272;8.590;2023-06-10T01:34:26;5.43;;;5.13;;
8737;SDS011;4405;49.272;8.590;2023-06-10T01:36:53;5.23;;;4.87;;
8737;SDS011;4405;49.272;8.590;2023-06-10T01:39:22;6.67;;;4.80;;
8737;SDS011;4405;49.272;8.590;2023-06-10T01:41:50;4.97;;;4.63;;
8737;SDS011;4405;49.272;8.590;2023-06-10T01:44:17;5.30;;;5.00;;
8737;SDS011;4405;49.272;8.590;2023-06-10T01:46:44;5.60;;;5.20;;
8737;SDS011;4405;49.272;8.590;2023-06-10T01:49:10;5.90;;;5.50;;
8737;SDS011;4405;49.272;8.590;2023-06-10T01:51:36;5.90;;;5.40;;
8737;SDS011;4405;49.272;8.590;2023-06-10T01:54:03;6.27;;;5.80;;
8737;SDS011;4405;49.272;8.590;2023-06-10T01:56:31;5.60;;;5.20;;
8737;SDS011;4405;49.272;8.590;2023-06-10T01:58:58;5.67;;;5.17;;
8737;SDS011;4405;49.272;8.590;2023-06-10T02:01:24;5.53;;;5.03;;
8737;SDS011;4405;49.272;8.590;2023-06-10T02:03:51;5.47;;;5.07;;
8737;SDS011;4405;49.272;8.590;2023-06-10T02:06:17;5.43;;;5.03;;
8737;SDS011;4405;49.272;8.590;2023-06-10T02:08:44;5.00;;;4.70;;
8737;SDS011;4405;49.272;8.590;2023-06-10T02:11:10;5.23;;;4.93;;
8737;SDS011;4405;49.272;8.590;2023-06-10T02:13:38;5.87;;;5.47;;
8737;SDS011;4405;49.272;8.590;2023-06-10T02:16:05;5.00;;;4.70;;
8737;SDS011;4405;49.272;8.590;2023-06-10T02:18:31;5.10;;;4.80;;
8737;SDS011;4405;49.272;8.590;2023-06-10T02:20:58;5.27;;;5.00;;
8737;SDS011;4405;49.272;8.590;2023-06-10T02:23:25;5.27;;;4.97;;
8737;SDS011;4405;49.272;8.590;2023-06-10T02:25:51;5.33;;;4.93;;
8737;SDS011;4405;49.272;8.590;2023-06-10T02:28:17;5.13;;;4.83;;
8737;SDS011;4405;49.272;8.590;2023-06-10T02:30:45;5.23;;;4.93;;
8737;SDS011;4405;49.272;8.590;2023-06-10T02:33:11;5.40;;;4.90;;
8737;SDS011;4405;49.272;8.590;2023-06-10T02:35:38;5.43;;;4.93;;
8737;SDS011;4405;49.272;8.590;2023-06-10T02:38:05;5.37;;;5.07;;
8737;SDS011;4405;49.272;8.590;2023-06-10T02:40:31;5.20;;;4.70;;
8737;SDS011;4405;49.272;8.590;2023-06-10T02:42:57;10.27;;;5.30;;
8737;SDS011;4405;49.272;8.590;2023-06-10T02:45:24;7.93;;;5.77;;
8737;SDS011;4405;49.272;8.590;2023-06-10T02:47:51;9.23;;;5.83;;
8737;SDS011;4405;49.272;8.590;2023-06-10T02:50:18;6.63;;;5.67;;
8737;SDS011;4405;49.272;8.590;2023-06-10T02:52:44;5.80;;;5.33;;
8737;SDS011;4405;49.272;8.590;2023-06-10T02:55:11;6.00;;;5.43;;
8737;SDS011;4405;49.272;8.590;2023-06-10T02:57:37;5.60;;;5.30;;
8737;SDS011;4405;49.272;8.590;2023-06-10T03:00:04;6.17;;;5.47;;
8737;SDS011;4405;49.272;8.590;2023-06-10T03:02:35;5.70;;;5.27;;
8737;SDS011;4405;49.272;8.590;2023-06-10T03:05:03;5.40;;;5.10;;
8737;SDS011;4405;49.272;8.590;2023-06-10T03:07:30;5.67;;;5.30;;
8737;SDS011;4405;49.272;8.590;2023-06-10T03:09:57;5.50;;;5.20;;
8737;SDS011;4405;49.272;8.590;2023-06-10T03:12:23;5.67;;;5.37;;
8737;SDS011;4405;49.272;8.590;2023-06-10T03:14:49;5.80;;;5.40;;
8737;SDS011;4405;49.272;8.590;2023-06-10T03:17:16;5.40;;;5.10;;
8737;SDS011;4405;49.272;8.590;2023-06-10T03:19:43;5.73;;;5.43;;
8737;SDS011;4405;49.272;8.590;2023-06-10T03:22:13;5.97;;;5.47;;
8737;SDS011;4405;49.272;8.590;2023-06-10T03:24:40;6.20;;;5.70;;
8737;SDS011;4405;49.272;8.590;2023-06-10T03:27:08;5.40;;;5.10;;
8737;SDS011;4405;49.272;8.590;2023-06-10T03:29:35;6.37;;;5.77;;
8737;SDS011;4405;49.272;8.590;2023-06-10T03:32:02;5.77;;;5.47;;
8737;SDS011;4405;49.272;8.590;2023-06-10T03:34:28;5.17;;;4.87;;
8737;SDS011;4405;49.272;8.590;2023-06-10T03:36:55;5.47;;;5.17;;
8737;SDS011;4405;49.272;8.590;2023-06-10T03:39:23;6.60;;;5.87;;
8737;SDS011;4405;49.272;8.590;2023-06-10T03:41:50;6.67;;;6.07;;
8737;SDS011;4405;49.272;8.590;2023-06-10T03:44:16;6.90;;;6.30;;
8737;SDS011;4405;49.272;8.590;2023-06-10T03:46:43;6.80;;;6.30;;
8737;SDS011;4405;49.272;8.590;2023-06-10T03:49:09;6.80;;;6.30;;
8737;SDS011;4405;49.272;8.590;2023-06-10T03:51:36;6.10;;;5.70;;
8737;SDS011;4405;49.272;8.590;2023-06-10T03:54:02;5.80;;;5.40;;
8737;SDS011;4405;49.272;8.590;2023-06-10T03:56:30;6.30;;;5.80;;
8737;SDS011;4405;49.272;8.590;2023-06-10T03:58:57;6.30;;;5.90;;
8737;SDS011;4405;49.272;8.590;2023-06-10T04:01:23;6.20;;;5.80;;
8737;SDS011;4405;49.272;8.590;2023-06-10T04:03:49;5.60;;;5.30;;
8737;SDS011;4405;49.272;8.590;2023-06-10T04:06:19;6.00;;;5.60;;
8737;SDS011;4405;49.272;8.590;2023-06-10T04:08:47;5.67;;;5.37;;
8737;SDS011;4405;49.272;8.590;2023-06-10T04:11:13;6.33;;;5.83;;
8737;SDS011;4405;49.272;8.590;2023-06-10T04:13:41;5.50;;;5.20;;
8737;SDS011;4405;49.272;8.590;2023-06-10T04:16:07;6.50;;;5.87;;
8737;SDS011;4405;49.272;8.590;2023-06-10T04:18:34;5.73;;;5.33;;
8737;SDS011;4405;49.272;8.590;2023-06-10T04:21:01;6.23;;;5.60;;
8737;SDS011;4405;49.272;8.590;2023-06-10T04:23:27;6.20;;;5.70;;
8737;SDS011;4405;49.272;8.590;2023-06-10T04:25:54;5.83;;;5.53;;
8737;SDS011;4405;49.272;8.590;2023-06-10T04:28:20;6.33;;;5.80;;
8737;SDS011;4405;49.272;8.590;2023-06-10T04:30:48;6.23;;;5.73;;
8737;SDS011;4405;49.272;8.590;2023-06-10T04:33:14;5.63;;;5.17;;
8737;SDS011;4405;49.272;8.590;2023-06-10T04:35:41;6.00;;;5.60;;
8737;SDS011;4405;49.272;8.590;2023-06-10T04:38:07;6.50;;;6.00;;
8737;SDS011;4405;49.272;8.590;2023-06-10T04:40:34;6.90;;;6.20;;
8737;SDS011;4405;49.272;8.590;2023-06-10T04:43:00;6.50;;;5.93;;
8737;SDS011;4405;49.272;8.590;2023-06-10T04:45:26;6.00;;;5.60;;
8737;SDS011;4405;49.272;8.590;2023-06-10T04:47:56;6.57;;;6.17;;
8737;SDS011;4405;49.272;8.590;2023-06-10T04:50:23;5.97;;;5.57;;
8737;SDS011;4405;49.272;8.590;2023-06-10T04:52:49;6.27;;;5.77;;
8737;SDS011;4405;49.272;8.590;2023-06-10T04:55:16;5.90;;;5.50;;
8737;SDS011;4405;49.272;8.590;2023-06-10T04:57:42;6.00;;;5.67;;
8737;SDS011;4405;49.272;8.590;2023-06-10T05:00:09;6.60;;;6.00;;
8737;SDS011;4405;49.272;8.590;2023-06-10T05:02:35;6.87;;;6.13;;
8737;SDS011;4405;49.272;8.590;2023-06-10T05:05:03;6.30;;;5.70;;
8737;SDS011;4405;49.272;8.590;2023-06-10T05:07:30;6.23;;;5.70;;
8737;SDS011;4405;49.272;8.590;2023-06-10T05:09:56;6.17;;;5.77;;
8737;SDS011;4405;49.272;8.590;2023-06-10T05:12:22;8.27;;;5.97;;
8737;SDS011;4405;49.272;8.590;2023-06-10T05:14:48;6.40;;;5.90;;
8737;SDS011;4405;49.272;8.590;2023-06-10T05:17:15;6.43;;;5.93;;
8737;SDS011;4405;49.272;8.590;2023-06-10T05:19:41;6.27;;;5.77;;
8737;SDS011;4405;49.272;8.590;2023-06-10T05:22:09;6.20;;;5.80;;
8737;SDS011;4405;49.272;8.590;2023-06-10T05:24:36;5.90;;;5.40;;
8737;SDS011;4405;49.272;8.590;2023-06-10T05:27:02;5.43;;;5.13;;
8737;SDS011;4405;49.272;8.590;2023-06-10T05:29:29;6.23;;;5.77;;
8737;SDS011;4405;49.272;8.590;2023-06-10T05:31:56;5.93;;;5.40;;
8737;SDS011;4405;49.272;8.590;2023-06-10T05:34:25;6.43;;;5.53;;
8737;SDS011;4405;49.272;8.590;2023-06-10T05:36:51;6.30;;;5.70;;
8737;SDS011;4405;49.272;8.590;2023-06-10T05:39:19;5.57;;;5.23;;
8737;SDS011;4405;49.272;8.590;2023-06-10T05:41:45;6.10;;;5.70;;
8737;SDS011;4405;49.272;8.590;2023-06-10T05:44:12;6.57;;;6.07;;
8737;SDS011;4405;49.272;8.590;2023-06-10T05:46:38;5.73;;;5.33;;
8737;SDS011;4405;49.272;8.590;2023-06-10T05:49:04;6.10;;;5.70;;
8737;SDS011;4405;49.272;8.590;2023-06-10T05:51:31;5.93;;;5.53;;
8737;SDS011;4405;49.272;8.590;2023-06-10T05:53:57;6.37;;;5.67;;
8737;SDS011;4405;49.272;8.590;2023-06-10T05:56:25;6.27;;;5.97;;
8737;SDS011;4405;49.272;8.590;2023-06-10T05:58:51;5.97;;;5.43;;
8737;SDS011;4405;49.272;8.590;2023-06-10T06:01:17;5.90;;;5.50;;
8737;SDS011;4405;49.272;8.590;2023-06-10T06:03:44;6.17;;;5.70;;
8737;SDS011;4405;49.272;8.590;2023-06-10T06:06:10;6.43;;;5.60;;
8737;SDS011;4405;49.272;8.590;2023-06-10T06:08:36;6.43;;;5.83;;
8737;SDS011;4405;49.272;8.590;2023-06-10T06:11:03;5.77;;;5.47;;
8737;SDS011;4405;49.272;8.590;2023-06-10T06:13:30;5.73;;;5.30;;
8737;SDS011;4405;49.272;8.590;2023-06-10T06:15:57;5.43;;;5.07;;
8737;SDS011;4405;49.272;8.590;2023-06-10T06:18:23;6.03;;;5.53;;
8737;SDS011;4405;49.272;8.590;2023-06-10T06:20:49;5.90;;;5.60;;
8737;SDS011;4405;49.272;8.590;2023-06-10T06:23:16;6.00;;;5.37;;
8737;SDS011;4405;49.272;8.590;2023-06-10T06:25:42;5.77;;;5.47;;
8737;SDS011;4405;49.272;8.590;2023-06-10T06:28:09;5.93;;;5.30;;
8737;SDS011;4405;49.272;8.590;2023-06-10T06:30:37;5.83;;;5.33;;
8737;SDS011;4405;49.272;8.590;2023-06-10T06:33:03;6.30;;;5.70;;
8737;SDS011;4405;49.272;8.590;2023-06-10T06:35:30;6.17;;;5.67;;
8737;SDS011;4405;49.272;8.590;2023-06-10T06:37:56;5.90;;;5.50;;
8737;SDS011;4405;49.272;8.590;2023-06-10T06:40:23;5.70;;;5.30;;
8737;SDS011;4405;49.272;8.590;2023-06-10T06:42:50;6.17;;;5.70;;
8737;SDS011;4405;49.272;8.590;2023-06-10T06:45:16;5.87;;;5.40;;
8737;SDS011;4405;49.272;8.590;2023-06-10T06:47:44;5.30;;;5.00;;
8737;SDS011;4405;49.272;8.590;2023-06-10T06:50:10;5.57;;;5.27;;
8737;SDS011;4405;49.272;8.590;2023-06-10T06:52:37;5.60;;;5.30;;
8737;SDS011;4405;49.272;8.590;2023-06-10T06:55:03;6.73;;;5.50;;
8737;SDS011;4405;49.272;8.590;2023-06-10T06:57:30;5.73;;;5.43;;
8737;SDS011;4405;49.272;8.590;2023-06-10T06:59:56;5.57;;;5.07;;
8737;SDS011;4405;49.272;8.590;2023-06-10T07:02:22;5.57;;;5.20;;
8737;SDS011;4405;49.272;8.590;2023-06-10T07:04:50;5.83;;;5.43;;
8737;SDS011;4405;49.272;8.590;2023-06-10T07:07:20;5.97;;;5.57;;
8737;SDS011;4405;49.272;8.590;2023-06-10T07:09:46;5.80;;;5.40;;
8737;SDS011;4405;49.272;8.590;2023-06-10T07:12:13;5.93;;;5.43;;
8737;SDS011;4405;49.272;8.590;2023-06-10T07:14:39;5.97;;;5.47;;
8737;SDS011;4405;49.272;8.590;2023-06-10T07:17:05;5.67;;;5.27;;
8737;SDS011;4405;49.272;8.590;2023-06-10T07:19:32;5.37;;;4.97;;
8737;SDS011;4405;49.272;8.590;2023-06-10T07:21:59;5.60;;;5.30;;
8737;SDS011;4405;49.272;8.590;2023-06-10T07:24:26;5.57;;;5.07;;
8737;SDS011;4405;49.272;8.590;2023-06-10T07:26:52;5.40;;;5.10;;
8737;SDS011;4405;49.272;8.590;2023-06-10T07:29:18;5.80;;;5.30;;
8737;SDS011;4405;49.272;8.590;2023-06-10T07:31:44;5.43;;;5.13;;
8737;SDS011;4405;49.272;8.590;2023-06-10T07:34:11;5.27;;;4.87;;
8737;SDS011;4405;49.272;8.590;2023-06-10T07:36:37;5.50;;;5.07;;
8737;SDS011;4405;49.272;8.590;2023-06-10T07:39:05;5.40;;;5.00;;
8737;SDS011;4405;49.272;8.590;2023-06-10T07:41:32;5.53;;;5.23;;
8737;SDS011;4405;49.272;8.590;2023-06-10T07:43:58;5.50;;;5.10;;
8737;SDS011;4405;49.272;8.590;2023-06-10T07:46:24;4.77;;;4.47;;
8737;SDS011;4405;49.272;8.590;2023-06-10T07:48:52;5.50;;;5.10;;
8737;SDS011;4405;49.272;8.590;2023-06-10T07:51:18;5.17;;;4.87;;
8737;SDS011;4405;49.272;8.590;2023-06-10T07:53:44;5.33;;;5.03;;
8737;SDS011;4405;49.272;8.590;2023-06-10T07:56:12;5.30;;;5.00;;
8737;SDS011;4405;49.272;8.590;2023-06-10T07:58:38;5.17;;;4.90;;
8737;SDS011;4405;49.272;8.590;2023-06-10T08:01:05;5.30;;;5.00;;
8737;SDS011;4405;49.272;8.590;2023-06-10T08:03:32;4.67;;;4.47;;
8737;SDS011;4405;49.272;8.590;2023-06-10T08:05:58;5.83;;;5.20;;
8737;SDS011;4405;49.272;8.590;2023-06-10T08:08:25;5.23;;;4.87;;
8737;SDS011;4405;49.272;8.590;2023-06-10T08:10:51;4.93;;;4.67;;
8737;SDS011;4405;49.272;8.590;2023-06-10T08:13:19;4.50;;;4.30;;
8737;SDS011;4405;49.272;8.590;2023-06-10T08:15:47;5.10;;;4.80;;
8737;SDS011;4405;49.272;8.590;2023-06-10T08:18:15;5.70;;;5.30;;
8737;SDS011;4405;49.272;8.590;2023-06-10T08:20:41;5.53;;;5.03;;
8737;SDS011;4405;49.272;8.590;2023-06-10T08:23:08;5.37;;;4.90;;
8737;SDS011;4405;49.272;8.590;2023-06-10T08:25:34;5.50;;;5.10;;
8737;SDS011;4405;49.272;8.590;2023-06-10T08:28:01;4.97;;;4.60;;
8737;SDS011;4405;49.272;8.590;2023-06-10T08:30:28;4.70;;;4.50;;
8737;SDS011;4405;49.272;8.590;2023-06-10T08:32:55;5.17;;;4.77;;
8737;SDS011;4405;49.272;8.590;2023-06-10T08:35:21;5.30;;;4.90;;
8737;SDS011;4405;49.272;8.590;2023-06-10T08:37:48;5.00;;;4.60;;
8737;SDS011;4405;49.272;8.590;2023-06-10T08:40:15;5.70;;;4.87;;
8737;SDS011;4405;49.272;8.590;2023-06-10T08:42:43;5.30;;;4.80;;
8737;SDS011;4405;49.272;8.590;2023-06-10T08:45:11;5.10;;;4.80;;
8737;SDS011;4405;49.272;8.590;2023-06-10T08:47:40;5.43;;;5.03;;
8737;SDS011;4405;49.272;8.590;2023-06-10T08:50:07;5.33;;;4.93;;
8737;SDS011;4405;49.272;8.590;2023-06-10T08:52:34;5.47;;;5.07;;
8737;SDS011;4405;49.272;8.590;2023-06-10T08:55:03;5.17;;;4.77;;
8737;SDS011;4405;49.272;8.590;2023-06-10T08:57:29;5.13;;;4.73;;
8737;SDS011;4405;49.272;8.590;2023-06-10T08:59:57;4.97;;;4.60;;
8737;SDS011;4405;49.272;8.590;2023-06-10T09:02:23;4.80;;;4.40;;
8737;SDS011;4405;49.272;8.590;2023-06-10T09:04:51;5.03;;;4.70;;
8737;SDS011;4405;49.272;8.590;2023-06-10T09:07:17;4.97;;;4.67;;
8737;SDS011;4405;49.272;8.590;2023-06-10T09:09:44;5.07;;;4.83;;
8737;SDS011;4405;49.272;8.590;2023-06-10T09:12:11;5.43;;;5.10;;
8737;SDS011;4405;49.272;8.590;2023-06-10T09:14:38;5.37;;;5.07;;
8737;SDS011;4405;49.272;8.590;2023-06-10T09:17:05;5.50;;;5.10;;
8737;SDS011;4405;49.272;8.590;2023-06-10T09:19:31;5.57;;;5.20;;
8737;SDS011;4405;49.272;8.590;2023-06-10T09:21:59;5.57;;;5.10;;
8737;SDS011;4405;49.272;8.590;2023-06-10T09:24:25;5.97;;;5.40;;
8737;SDS011;4405;49.272;8.590;2023-06-10T09:26:54;6.50;;;5.03;;
8737;SDS011;4405;49.272;8.590;2023-06-10T09:29:27;5.20;;;5.00;;
8737;SDS011;4405;49.272;8.590;2023-06-10T09:31:54;5.53;;;5.13;;
8737;SDS011;4405;49.272;8.590;2023-06-10T09:34:24;5.40;;;4.80;;
8737;SDS011;4405;49.272;8.590;2023-06-10T09:36:51;5.43;;;5.13;;
8737;SDS011;4405;49.272;8.590;2023-06-10T09:39:18;5.63;;;5.20;;
8737;SDS011;4405;49.272;8.590;2023-06-10T09:41:45;6.40;;;5.10;;
8737;SDS011;4405;49.272;8.590;2023-06-10T09:44:12;5.47;;;4.90;;
8737;SDS011;4405;49.272;8.590;2023-06-10T09:46:39;5.50;;;5.10;;
8737;SDS011;4405;49.272;8.590;2023-06-10T09:49:05;5.70;;;5.30;;
8737;SDS011;4405;49.272;8.590;2023-06-10T09:51:32;5.57;;;5.17;;
8737;SDS011;4405;49.272;8.590;2023-06-10T09:53:58;5.13;;;4.83;;
8737;SDS011;4405;49.272;8.590;2023-06-10T09:56:33;11.13;;;5.10;;
8737;SDS011;4405;49.272;8.590;2023-06-10T09:59:00;4.97;;;4.67;;
8737;SDS011;4405;49.272;8.590;2023-06-10T10:01:26;5.77;;;5.23;;
8737;SDS011;4405;49.272;8.590;2023-06-10T10:03:53;5.47;;;5.07;;
8737;SDS011;4405;49.272;8.590;2023-06-10T10:06:19;5.37;;;4.97;;
8737;SDS011;4405;49.272;8.590;2023-06-10T10:08:46;6.70;;;5.40;;
8737;SDS011;4405;49.272;8.590;2023-06-10T10:11:13;4.87;;;4.67;;
8737;SDS011;4405;49.272;8.590;2023-06-10T10:13:41;5.60;;;5.27;;
8737;SDS011;4405;49.272;8.590;2023-06-10T10:16:10;5.00;;;4.53;;
8737;SDS011;4405;49.272;8.590;2023-06-10T10:18:39;5.87;;;5.23;;
8737;SDS011;4405;49.272;8.590;2023-06-10T10:21:07;5.37;;;4.97;;
8737;SDS011;4405;49.272;8.590;2023-06-10T10:23:38;6.13;;;5.63;;
8737;SDS011;4405;49.272;8.590;2023-06-10T10:26:06;5.50;;;5.20;;
8737;SDS011;4405;49.272;8.590;2023-06-10T10:28:34;5.30;;;4.80;;
8737;SDS011;4405;49.272;8.590;2023-06-10T10:31:06;5.57;;;5.17;;
8737;SDS011;4405;49.272;8.590;2023-06-10T10:33:36;5.30;;;5.00;;
8737;SDS011;4405;49.272;8.590;2023-06-10T10:36:06;4.87;;;4.50;;
8737;SDS011;4405;49.272;8.590;2023-06-10T10:38:33;4.97;;;4.77;;
8737;SDS011;4405;49.272;8.590;2023-06-10T10:41:00;4.80;;;4.60;;
8737;SDS011;4405;49.272;8.590;2023-06-10T10:43:27;4.93;;;4.60;;
8737;SDS011;4405;49.272;8.590;2023-06-10T10:46:09;5.97;;;4.70;;
8737;SDS011;4405;49.272;8.590;2023-06-10T10:48:39;5.00;;;4.35;;
8737;SDS011;4405;49.272;8.590;2023-06-10T10:51:06;4.65;;;4.32;;
8737;SDS011;4405;49.272;8.590;2023-06-10T10:53:32;5.32;;;4.90;;
8737;SDS011;4405;49.272;8.590;2023-06-10T10:55:59;5.13;;;4.72;;
8737;SDS011;4405;49.272;8.590;2023-06-10T10:58:25;4.50;;;4.30;;
8737;SDS011;4405;49.272;8.590;2023-06-10T11:00:52;4.72;;;4.43;;
8737;SDS011;4405;49.272;8.590;2023-06-10T11:03:18;4.70;;;4.50;;
8737;SDS011;4405;49.272;8.590;2023-06-10T11:05:46;5.00;;;4.70;;
8737;SDS011;4405;49.272;8.590;2023-06-10T11:08:14;5.53;;;4.90;;
8737;SDS011;4405;49.272;8.590;2023-06-10T11:10:41;5.50;;;5.20;;
8737;SDS011;4405;49.272;8.590;2023-06-10T11:13:07;8.37;;;4.83;;
8737;SDS011;4405;49.272;8.590;2023-06-10T11:15:38;4.90;;;4.60;;
8737;SDS011;4405;49.272;8.590;2023-06-10T11:18:08;5.17;;;4.80;;
8737;SDS011;4405;49.272;8.590;2023-06-10T11:20:46;4.70;;;4.50;;
8737;SDS011;4405;49.272;8.590;2023-06-10T11:23:30;4.80;;;4.50;;
8737;SDS011;4405;49.272;8.590;2023-06-10T11:26:09;4.13;;;4.00;;
8737;SDS011;4405;49.272;8.590;2023-06-10T11:28:35;4.47;;;4.07;;
8737;SDS011;4405;49.272;8.590;2023-06-10T11:31:02;4.13;;;3.80;;
8737;SDS011;4405;49.272;8.590;2023-06-10T11:33:28;4.40;;;4.20;;
8737;SDS011;4405;49.272;8.590;2023-06-10T11:35:56;4.57;;;4.20;;
8737;SDS011;4405;49.272;8.590;2023-06-10T11:38:23;4.57;;;4.27;;
8737;SDS011;4405;49.272;8.590;2023-06-10T11:40:50;4.60;;;4.30;;
8737;SDS011;4405;49.272;8.590;2023-06-10T11:43:16;4.00;;;3.70;;
8737;SDS011;4405;49.272;8.590;2023-06-10T11:45:43;4.20;;;3.90;;
8737;SDS011;4405;49.272;8.590;2023-06-10T11:48:10;4.50;;;4.10;;
8737;SDS011;4405;49.272;8.590;2023-06-10T11:50:36;4.83;;;4.10;;
8737;SDS011;4405;49.272;8.590;2023-06-10T11:53:04;4.50;;;4.20;;
8737;SDS011;4405;49.272;8.590;2023-06-10T11:55:40;4.27;;;4.00;;
8737;SDS011;4405;49.272;8.590;2023-06-10T11:58:11;4.10;;;3.70;;
8737;SDS011;4405;49.272;8.590;2023-06-10T12:00:43;3.93;;;3.67;;
8737;SDS011;4405;49.272;8.590;2023-06-10T12:03:09;6.27;;;4.10;;
8737;SDS011;4405;49.272;8.590;2023-06-10T12:05:35;4.03;;;3.87;;
8737;SDS011;4405;49.272;8.590;2023-06-10T12:08:09;4.00;;;3.80;;
8737;SDS011;4405;49.272;8.590;2023-06-10T12:10:40;4.10;;;3.90;;
8737;SDS011;4405;49.272;8.590;2023-06-10T12:13:06;3.87;;;3.57;;
8737;SDS011;4405;49.272;8.590;2023-06-10T12:15:33;4.63;;;4.33;;
8737;SDS011;4405;49.272;8.590;2023-06-10T12:18:00;3.47;;;3.37;;
8737;SDS011;4405;49.272;8.590;2023-06-10T12:20:27;3.70;;;3.50;;
8737;SDS011;4405;49.272;8.590;2023-06-10T12:22:54;3.60;;;3.40;;
8737;SDS011;4405;49.272;8.590;2023-06-10T12:25:25;3.90;;;3.70;;
8737;SDS011;4405;49.272;8.590;2023-06-10T12:27:52;3.87;;;3.63;;
8737;SDS011;4405;49.272;8.590;2023-06-10T12:30:19;3.90;;;3.60;;
8737;SDS011;4405;49.272;8.590;2023-06-10T12:32:46;3.93;;;3.70;;
8737;SDS011;4405;49.272;8.590;2023-06-10T12:35:13;4.00;;;3.67;;
8737;SDS011;4405;49.272;8.590;2023-06-10T12:37:40;3.83;;;3.63;;
8737;SDS011;4405;49.272;8.590;2023-06-10T12:40:07;4.13;;;3.80;;
8737;SDS011;4405;49.272;8.590;2023-06-10T12:42:36;4.03;;;3.83;;
8737;SDS011;4405;49.272;8.590;2023-06-10T12:45:03;5.40;;;4.00;;
8737;SDS011;4405;49.272;8.590;2023-06-10T12:47:31;6.63;;;4.03;;
8737;SDS011;4405;49.272;8.590;2023-06-10T12:49:59;4.23;;;3.83;;
8737;SDS011;4405;49.272;8.590;2023-06-10T12:52:26;4.10;;;3.73;;
8737;SDS011;4405;49.272;8.590;2023-06-10T12:54:52;4.13;;;3.67;;
8737;SDS011;4405;49.272;8.590;2023-06-10T12:57:19;3.57;;;3.43;;
8737;SDS011;4405;49.272;8.590;2023-06-10T12:59:47;4.10;;;3.87;;
8737;SDS011;4405;49.272;8.590;2023-06-10T13:02:17;4.03;;;3.72;;
8737;SDS011;4405;49.272;8.590;2023-06-10T13:04:44;4.20;;;3.87;;
8737;SDS011;4405;49.272;8.590;2023-06-10T13:07:11;3.90;;;3.67;;
8737;SDS011;4405;49.272;8.590;2023-06-10T13:09:37;3.80;;;3.60;;
8737;SDS011;4405;49.272;8.590;2023-06-10T13:12:04;3.78;;;3.58;;
8737;SDS011;4405;49.272;8.590;2023-06-10T13:14:31;3.90;;;3.60;;
8737;SDS011;4405;49.272;8.590;2023-06-10T13:16:59;3.50;;;3.40;;
8737;SDS011;4405;49.272;8.590;2023-06-10T13:19:25;4.32;;;4.03;;
8737;SDS011;4405;49.272;8.590;2023-06-10T13:21:52;4.35;;;4.15;;
8737;SDS011;4405;49.272;8.590;2023-06-10T13:24:18;6.80;;;4.10;;
8737;SDS011;4405;49.272;8.590;2023-06-10T13:26:45;4.55;;;3.90;;
8737;SDS011;4405;49.272;8.590;2023-06-10T13:29:11;3.87;;;3.73;;
8737;SDS011;4405;49.272;8.590;2023-06-10T13:31:39;4.45;;;4.15;;
8737;SDS011;4405;49.272;8.590;2023-06-10T13:34:07;16.88;;;15.30;;
8737;SDS011;4405;49.272;8.590;2023-06-10T13:36:33;15.80;;;14.40;;
8737;SDS011;4405;49.272;8.590;2023-06-10T13:39:00;4.30;;;4.00;;
8737;SDS011;4405;49.272;8.590;2023-06-10T13:41:26;6.17;;;5.27;;
8737;SDS011;4405;49.272;8.590;2023-06-10T13:43:53;4.03;;;3.83;;
8737;SDS011;4405;49.272;8.590;2023-06-10T13:46:20;4.13;;;3.90;;
8737;SDS011;4405;49.272;8.590;2023-06-10T13:48:46;4.13;;;3.63;;
8737;SDS011;4405;49.272;8.590;2023-06-10T13:51:14;5.10;;;4.77;;
8737;SDS011;4405;49.272;8.590;2023-06-10T13:53:40;4.10;;;3.87;;
8737;SDS011;4405;49.272;8.590;2023-06-10T13:56:07;3.33;;;3.03;;
8737;SDS011;4405;49.272;8.590;2023-06-10T13:58:34;4.13;;;3.80;;
8737;SDS011;4405;49.272;8.590;2023-06-10T14:01:03;3.60;;;3.40;;
8737;SDS011;4405;49.272;8.590;2023-06-10T14:03:30;3.90;;;3.60;;
8737;SDS011;4405;49.272;8.590;2023-06-10T14:05:56;3.92;;;3.72;;
8737;SDS011;4405;49.272;8.590;2023-06-10T14:08:24;3.90;;;3.60;;
8737;SDS011;4405;49.272;8.590;2023-06-10T14:10:50;3.67;;;3.28;;
8737;SDS011;4405;49.272;8.590;2023-06-10T14:13:17;3.17;;;3.08;;
8737;SDS011;4405;49.272;8.590;2023-06-10T14:15:43;3.08;;;2.97;;
8737;SDS011;4405;49.272;8.590;2023-06-10T14:18:10;4.18;;;3.45;;
8737;SDS011;4405;49.272;8.590;2023-06-10T14:20:36;3.67;;;3.40;;
8737;SDS011;4405;49.272;8.590;2023-06-10T14:23:03;3.42;;;3.22;;
8737;SDS011;4405;49.272;8.590;2023-06-10T14:25:30;3.78;;;3.47;;
8737;SDS011;4405;49.272;8.590;2023-06-10T14:27:57;4.07;;;3.55;;
8737;SDS011;4405;49.272;8.590;2023-06-10T14:30:23;3.65;;;3.45;;
8737;SDS011;4405;49.272;8.590;2023-06-10T14:32:50;3.63;;;3.50;;
8737;SDS011;4405;49.272;8.590;2023-06-10T14:35:16;3.60;;;3.50;;
8737;SDS011;4405;49.272;8.590;2023-06-10T14:37:42;3.70;;;3.50;;
8737;SDS011;4405;49.272;8.590;2023-06-10T14:40:09;3.88;;;3.70;;
8737;SDS011;4405;49.272;8.590;2023-06-10T14:42:36;3.50;;;3.30;;
8737;SDS011;4405;49.272;8.590;2023-06-10T14:45:03;3.92;;;3.72;;
8737;SDS011;4405;49.272;8.590;2023-06-10T14:47:30;3.93;;;3.70;;
8737;SDS011;4405;49.272;8.590;2023-06-10T14:49:56;4.73;;;4.53;;
8737;SDS011;4405;49.272;8.590;2023-06-10T14:52:23;3.70;;;3.57;;
8737;SDS011;4405;49.272;8.590;2023-06-10T14:54:49;5.43;;;5.13;;
8737;SDS011;4405;49.272;8.590;2023-06-10T14:57:15;4.43;;;4.13;;
8737;SDS011;4405;49.272;8.590;2023-06-10T14:59:43;4.77;;;4.47;;
8737;SDS011;4405;49.272;8.590;2023-06-10T15:02:09;5.37;;;4.97;;
8737;SDS011;4405;49.272;8.590;2023-06-10T15:04:36;4.17;;;3.93;;
8737;SDS011;4405;49.272;8.590;2023-06-10T15:07:02;4.17;;;4.03;;
8737;SDS011;4405;49.272;8.590;2023-06-10T15:09:29;5.30;;;5.00;;
8737;SDS011;4405;49.272;8.590;2023-06-10T15:11:56;4.30;;;4.00;;
8737;SDS011;4405;49.272;8.590;2023-06-10T15:14:23;4.43;;;4.22;;